Time;durP1;ratioP1;P1;durP2;ratioP2;P2;SDS_P1;SDS_P2;PMS_P1;PMS_P2;Temp;Humidity;BMP_temperature;BMP_pressure;BME280_temperature;BME280_humidity;BME280_pressure;Samples;Min_cycle;Max_cycle;Signal;HPM_P1;HPM_P2
2024/03/21 00:00:51;;;;;;;2.80;2.50;;;7.00;99.90;;;;;;2062025;28;20217;-66
2024/03/21 00:01:52;;;;;;;2.65;2.28;;;6.90;99.90;;;;;;2061630;28;20238;-69
2024/03/21 00:02:53;;;;;;;2.37;2.17;;;7.00;99.90;;;;;;2065285;28;20697;-67
2024/03/21 00:03:53;;;;;;;2.53;2.33;;;7.00;99.90;;;;;;2057959;28;20370;-66
2024/03/21 00:04:54;;;;;;;2.53;2.10;;;7.00;99.90;;;;;;2060143;28;20214;-67
2024/03/21 00:05:55;;;;;;;2.73;1.80;;;7.10;99.90;;;;;;2061220;28;20286;-68
2024/03/21 00:06:56;;;;;;;2.60;2.20;;;7.00;99.90;;;;;;2056778;28;20267;-67
2024/03/21 00:07:57;;;;;;;2.60;1.90;;;7.10;99.90;;;;;;2044872;28;20231;-67
2024/03/21 00:08:57;;;;;;;2.80;2.33;;;7.10;99.90;;;;;;2056264;28;20218;-67
2024/03/21 00:09:58;;;;;;;2.50;2.10;;;7.10;99.90;;;;;;2048832;28;20469;-67
2024/03/21 00:10:59;;;;;;;2.80;2.30;;;7.10;99.90;;;;;;2056708;28;20221;-66
2024/03/21 00:11:59;;;;;;;2.40;2.20;;;7.10;99.90;;;;;;2061666;28;20641;-67
2024/03/21 00:13:00;;;;;;;1.80;1.70;;;7.20;99.90;;;;;;2056626;28;20222;-68
2024/03/21 00:14:01;;;;;;;2.80;2.10;;;7.10;99.90;;;;;;2049861;28;20325;-67
2024/03/21 00:15:01;;;;;;;2.33;2.13;;;7.10;99.90;;;;;;2065568;28;20204;-67
2024/03/21 00:16:06;;;;;;;2.50;1.83;;;7.10;99.90;;;;;;2057387;28;20193;-69
2024/03/21 00:17:06;;;;;;;2.20;1.80;;;7.10;99.90;;;;;;2060799;28;20214;-68
2024/03/21 00:18:08;;;;;;;3.47;2.00;;;7.10;99.90;;;;;;2060444;28;20720;-68
2024/03/21 00:19:09;;;;;;;3.17;2.22;;;7.10;99.90;;;;;;2064773;28;20273;-68
2024/03/21 00:20:11;;;;;;;2.45;2.00;;;7.10;99.90;;;;;;2061638;28;20718;-68
2024/03/21 00:21:11;;;;;;;2.05;1.88;;;7.10;99.90;;;;;;2056780;28;20201;-68
2024/03/21 00:22:12;;;;;;;3.13;2.30;;;7.10;99.90;;;;;;2052897;28;20255;-68
2024/03/21 00:23:12;;;;;;;3.10;2.10;;;7.10;99.90;;;;;;2057497;28;20175;-68
2024/03/21 00:24:15;;;;;;;3.23;1.73;;;7.20;99.90;;;;;;2060821;28;20211;-68
2024/03/21 00:25:17;;;;;;;2.25;1.80;;;7.20;99.90;;;;;;2065127;28;20671;-67
2024/03/21 00:26:18;;;;;;;3.22;2.45;;;7.10;99.90;;;;;;2061551;28;20191;-67
2024/03/21 00:27:19;;;;;;;2.30;2.00;;;7.10;99.90;;;;;;2065897;28;20211;-68
2024/03/21 00:28:20;;;;;;;2.00;1.40;;;7.10;99.90;;;;;;2061496;28;20435;-67
2024/03/21 00:29:24;;;;;;;2.17;1.80;;;7.10;99.90;;;;;;2064246;28;20270;-68
2024/03/21 00:30:25;;;;;;;3.75;2.03;;;7.10;99.90;;;;;;2062858;28;20336;-69
2024/03/21 00:31:25;;;;;;;3.13;2.07;;;7.20;99.90;;;;;;2062245;28;20928;-70
2024/03/21 00:32:26;;;;;;;2.30;2.00;;;7.20;99.90;;;;;;2062685;28;20283;-66
2024/03/21 00:33:27;;;;;;;2.50;1.83;;;7.10;99.90;;;;;;2065026;28;21000;-66
2024/03/21 00:34:28;;;;;;;3.77;2.60;;;7.10;99.90;;;;;;2055751;28;20309;-67
2024/03/21 00:35:28;;;;;;;3.10;2.10;;;7.10;99.90;;;;;;2057087;28;20238;-65
2024/03/21 00:36:29;;;;;;;5.10;1.90;;;7.10;99.90;;;;;;2064777;28;20738;-66
2024/03/21 00:37:30;;;;;;;1.70;1.60;;;7.10;99.90;;;;;;2048669;28;20227;-67
2024/03/21 00:38:31;;;;;;;3.17;2.13;;;7.00;99.90;;;;;;2048594;28;20234;-66
2024/03/21 00:39:32;;;;;;;3.77;2.40;;;7.00;99.90;;;;;;2064211;28;20659;-66
2024/03/21 00:40:33;;;;;;;2.25;2.03;;;7.10;99.90;;;;;;2062228;28;20309;-65
2024/03/21 00:41:33;;;;;;;2.58;2.05;;;7.10;99.90;;;;;;2064125;28;20313;-66
2024/03/21 00:42:35;;;;;;;2.50;1.87;;;7.10;99.90;;;;;;2065330;28;20230;-67
2024/03/21 00:43:36;;;;;;;2.10;1.80;;;7.20;99.90;;;;;;2064464;28;20308;-67
2024/03/21 00:44:37;;;;;;;3.45;2.00;;;7.20;99.90;;;;;;2063179;28;20244;-65
2024/03/21 00:45:38;;;;;;;2.53;1.80;;;7.10;99.90;;;;;;2063496;28;20236;-67
2024/03/21 00:46:38;;;;;;;1.90;1.73;;;7.10;99.90;;;;;;2057434;28;20253;-67
2024/03/21 00:47:39;;;;;;;3.20;1.67;;;7.00;99.90;;;;;;2058978;28;20234;-67
2024/03/21 00:48:40;;;;;;;2.23;1.90;;;7.00;99.90;;;;;;2066372;28;20659;-68
2024/03/21 00:49:40;;;;;;;3.70;2.00;;;7.10;99.90;;;;;;2062923;28;20230;-68
2024/03/21 00:50:41;;;;;;;2.13;1.70;;;7.10;99.90;;;;;;2058444;28;20222;-68
2024/03/21 00:51:43;;;;;;;3.43;2.00;;;7.10;99.90;;;;;;2054846;28;20235;-67
2024/03/21 00:52:44;;;;;;;2.88;2.00;;;7.10;99.90;;;;;;2053986;28;20305;-67
2024/03/21 00:53:45;;;;;;;2.10;1.90;;;7.00;99.90;;;;;;2050951;28;20239;-66
2024/03/21 00:54:46;;;;;;;2.83;1.73;;;7.10;99.90;;;;;;2058136;28;20226;-67
2024/03/21 00:55:47;;;;;;;2.13;1.87;;;7.00;99.90;;;;;;2057716;28;20614;-67
2024/03/21 00:56:47;;;;;;;2.77;1.70;;;7.00;99.90;;;;;;2066890;28;20228;-68
2024/03/21 00:57:48;;;;;;;2.43;1.83;;;7.10;99.90;;;;;;2064331;28;20244;-68
2024/03/21 00:58:49;;;;;;;3.27;2.07;;;7.00;99.90;;;;;;2057906;28;20277;-70
2024/03/21 00:59:50;;;;;;;2.47;1.70;;;7.10;99.90;;;;;;2054066;28;20226;-67
2024/03/21 01:00:50;;;;;;;3.03;1.80;;;7.10;99.90;;;;;;2055444;28;20309;-67
2024/03/21 01:01:52;;;;;;;2.60;2.10;;;7.10;99.90;;;;;;2055448;28;20317;-68
2024/03/21 01:02:52;;;;;;;2.30;1.75;;;7.10;99.90;;;;;;2057965;28;20230;-67
2024/03/21 01:03:55;;;;;;;2.37;1.97;;;7.00;99.90;;;;;;2054899;28;20259;-68
2024/03/21 01:04:56;;;;;;;2.38;1.90;;;7.00;99.90;;;;;;2057725;28;20210;-70
2024/03/21 01:05:57;;;;;;;2.33;2.13;;;7.10;99.90;;;;;;2038882;28;20322;-68
2024/03/21 01:06:58;;;;;;;3.47;1.80;;;7.10;99.90;;;;;;2042008;28;20703;-68
2024/03/21 01:07:58;;;;;;;2.57;2.00;;;7.10;99.90;;;;;;2051575;28;20786;-69
2024/03/21 01:08:59;;;;;;;2.30;2.00;;;7.10;99.90;;;;;;2058484;28;20269;-68
2024/03/21 01:10:00;;;;;;;2.57;2.20;;;7.00;99.90;;;;;;2055252;28;20234;-69
2024/03/21 01:11:01;;;;;;;4.20;2.07;;;7.00;99.90;;;;;;2056471;28;20276;-68
2024/03/21 01:12:02;;;;;;;2.72;2.10;;;7.10;99.90;;;;;;2052184;28;20231;-68
2024/03/21 01:13:03;;;;;;;3.27;1.73;;;7.10;99.90;;;;;;2052384;28;20689;-69
2024/03/21 01:14:03;;;;;;;1.97;1.57;;;7.10;99.90;;;;;;2063733;28;20281;-69
2024/03/21 01:15:05;;;;;;;2.07;1.87;;;7.10;99.90;;;;;;2052419;28;20868;-70
2024/03/21 01:16:08;;;;;;;2.95;1.90;;;7.10;99.90;;;;;;2044041;28;20240;-69
2024/03/21 01:17:09;;;;;;;2.08;1.88;;;7.20;99.90;;;;;;2043780;28;20673;-69
2024/03/21 01:18:09;;;;;;;2.77;1.97;;;7.20;99.90;;;;;;2043023;28;20188;-69
2024/03/21 01:19:10;;;;;;;2.63;1.90;;;7.20;99.90;;;;;;2054469;28;20214;-69
2024/03/21 01:20:11;;;;;;;2.87;2.10;;;7.20;99.90;;;;;;2055592;28;20290;-69
2024/03/21 01:21:15;;;;;;;2.87;2.13;;;7.20;99.90;;;;;;2047445;28;20184;-70
2024/03/21 01:22:16;;;;;;;3.40;2.40;;;7.20;99.90;;;;;;2055932;28;20210;-69
2024/03/21 01:23:16;;;;;;;4.00;2.30;;;7.20;99.90;;;;;;2064208;28;20301;-69
2024/03/21 01:24:17;;;;;;;2.20;2.00;;;7.20;99.90;;;;;;2063176;28;20176;-67
2024/03/21 01:25:18;;;;;;;2.30;2.00;;;7.20;99.90;;;;;;2063902;28;20690;-67
2024/03/21 01:26:19;;;;;;;2.30;1.97;;;7.20;99.90;;;;;;2064316;28;20178;-68
2024/03/21 01:27:19;;;;;;;2.27;1.83;;;7.20;99.90;;;;;;2055423;28;20183;-69
2024/03/21 01:28:20;;;;;;;2.27;1.90;;;7.20;99.90;;;;;;2055908;28;20215;-68
2024/03/21 01:29:21;;;;;;;2.93;2.10;;;7.30;99.90;;;;;;2054538;28;20346;-68
2024/03/21 01:30:22;;;;;;;2.33;2.13;;;7.30;99.90;;;;;;2050840;28;20295;-69
2024/03/21 01:31:23;;;;;;;2.42;2.05;;;7.30;99.90;;;;;;2062175;28;20234;-68
2024/03/21 01:32:23;;;;;;;3.07;2.20;;;7.30;99.90;;;;;;2054544;28;20256;-69
2024/03/21 01:33:24;;;;;;;5.03;2.40;;;7.40;99.90;;;;;;2043713;28;20250;-69
2024/03/21 01:34:25;;;;;;;3.10;2.20;;;7.40;99.90;;;;;;2052308;28;20241;-68
2024/03/21 01:35:26;;;;;;;3.07;2.10;;;7.40;99.90;;;;;;2062378;28;20329;-69
2024/03/21 01:36:30;;;;;;;3.97;2.30;;;7.40;99.90;;;;;;2052487;28;20652;-68
2024/03/21 01:37:30;;;;;;;2.00;1.80;;;7.50;99.90;;;;;;2051198;28;20322;-65
2024/03/21 01:38:31;;;;;;;2.40;1.80;;;7.50;99.90;;;;;;2062217;28;20743;-67
2024/03/21 01:39:32;;;;;;;4.37;1.97;;;7.60;99.90;;;;;;2051056;28;20258;-67
2024/03/21 01:40:33;;;;;;;3.10;1.80;;;7.60;99.90;;;;;;2046922;28;20367;-66
2024/03/21 01:41:34;;;;;;;1.92;1.73;;;7.50;99.90;;;;;;2050862;28;20271;-67
2024/03/21 01:42:37;;;;;;;3.13;1.87;;;7.60;99.90;;;;;;2063105;28;20311;-66
2024/03/21 01:43:39;;;;;;;6.47;2.30;;;7.60;99.90;;;;;;2063936;28;20226;-65
2024/03/21 01:44:40;;;;;;;5.30;2.00;;;7.60;99.90;;;;;;2062932;28;20234;-68
2024/03/21 01:45:41;;;;;;;3.00;1.67;;;7.50;99.90;;;;;;2062742;28;20223;-67
2024/03/21 01:46:42;;;;;;;3.17;2.10;;;7.50;99.90;;;;;;2063261;28;20592;-67
2024/03/21 01:47:44;;;;;;;2.28;2.00;;;7.50;99.90;;;;;;2053469;28;20697;-65
2024/03/21 01:48:50;;;;;;;1.85;1.70;;;7.50;99.90;;;;;;2051967;28;20229;-66
2024/03/21 01:49:50;;;;;;;2.78;1.80;;;7.60;99.90;;;;;;2053906;28;20598;-66
2024/03/21 01:50:51;;;;;;;2.03;1.70;;;7.60;99.90;;;;;;2054391;28;20239;-65
2024/03/21 01:51:52;;;;;;;2.23;2.00;;;7.60;99.90;;;;;;2058964;28;20683;-65
2024/03/21 01:52:52;;;;;;;5.97;1.97;;;7.60;99.90;;;;;;2051882;28;20230;-66
2024/03/21 01:53:55;;;;;;;1.80;1.57;;;7.60;99.90;;;;;;2052948;28;20307;-66
2024/03/21 01:54:57;;;;;;;2.72;1.73;;;7.70;99.90;;;;;;2063174;28;20241;-66
2024/03/21 01:55:59;;;;;;;2.40;2.20;;;7.70;99.90;;;;;;2064148;28;20249;-66
2024/03/21 01:56:59;;;;;;;7.28;2.03;;;7.60;99.90;;;;;;2046763;28;20235;-66
2024/03/21 01:58:00;;;;;;;2.57;2.20;;;7.60;99.90;;;;;;2046758;28;20285;-66
2024/03/21 01:59:01;;;;;;;2.67;1.90;;;7.60;99.90;;;;;;2062670;28;20218;-65
2024/03/21 02:00:03;;;;;;;2.60;2.27;;;7.60;99.90;;;;;;2063296;28;20228;-65
2024/03/21 02:01:31;;;;;;;2.53;2.17;;;7.70;99.90;;;;;;2050200;28;20699;-65
2024/03/21 02:02:32;;;;;;;2.10;1.83;;;7.60;99.90;;;;;;2042722;28;20215;-64
2024/03/21 02:03:32;;;;;;;2.83;1.80;;;7.60;99.90;;;;;;2054112;28;20593;-64
2024/03/21 02:04:33;;;;;;;2.30;1.67;;;7.60;99.90;;;;;;2055063;28;20236;-64
2024/03/21 02:05:34;;;;;;;2.97;2.40;;;7.60;99.90;;;;;;2043531;28;20226;-65
2024/03/21 02:06:35;;;;;;;2.93;2.20;;;7.60;99.90;;;;;;2053630;28;20301;-65
2024/03/21 02:07:36;;;;;;;2.63;2.08;;;7.60;99.90;;;;;;2061582;28;20740;-65
2024/03/21 02:08:37;;;;;;;2.40;2.20;;;7.70;99.90;;;;;;2062153;28;20280;-65
2024/03/21 02:09:38;;;;;;;2.45;1.75;;;7.70;99.90;;;;;;2052488;28;20326;-65
2024/03/21 02:10:39;;;;;;;4.63;2.43;;;7.70;99.90;;;;;;2052023;28;20223;-65
2024/03/21 02:11:40;;;;;;;2.73;2.20;;;7.80;99.90;;;;;;2061469;28;20235;-65
2024/03/21 02:12:43;;;;;;;2.90;2.20;;;7.80;99.90;;;;;;2060767;28;20276;-66
2024/03/21 02:13:46;;;;;;;3.15;2.08;;;7.90;99.90;;;;;;2051382;28;20654;-66
2024/03/21 02:14:50;;;;;;;2.53;2.08;;;7.90;99.90;;;;;;2053641;28;20226;-65
2024/03/21 02:15:51;;;;;;;2.80;1.85;;;7.90;99.90;;;;;;2059823;28;20300;-66
2024/03/21 02:16:51;;;;;;;3.60;2.00;;;7.90;99.90;;;;;;2061082;28;20253;-66
2024/03/21 02:17:52;;;;;;;5.50;2.40;;;8.00;99.90;;;;;;2061519;28;20297;-66
2024/03/21 02:18:53;;;;;;;3.60;2.40;;;8.00;99.90;;;;;;2060720;28;20287;-66
2024/03/21 02:19:54;;;;;;;2.40;2.08;;;8.00;99.90;;;;;;2061541;28;20317;-64
2024/03/21 02:20:54;;;;;;;2.70;2.10;;;8.00;99.90;;;;;;2062233;28;20240;-64
2024/03/21 02:23:14;;;;;;;2.35;1.77;;;8.10;99.90;;;;;;2057659;28;20213;-64
2024/03/21 02:24:15;;;;;;;1.80;1.70;;;8.20;99.90;;;;;;2061967;28;20189;-64
2024/03/21 02:25:16;;;;;;;2.53;1.90;;;8.30;99.90;;;;;;2061442;28;20182;-65
2024/03/21 02:26:17;;;;;;;4.95;2.10;;;8.30;99.90;;;;;;2053398;28;20179;-65
2024/03/21 02:27:20;;;;;;;3.73;2.10;;;8.30;99.90;;;;;;2054723;28;20191;-68
2024/03/21 02:28:21;;;;;;;2.38;2.13;;;8.20;99.90;;;;;;2059981;28;20242;-64
2024/03/21 02:29:22;;;;;;;2.33;1.73;;;8.20;99.90;;;;;;2052675;28;20230;-65
2024/03/21 02:30:23;;;;;;;3.20;1.83;;;8.20;99.90;;;;;;2061366;28;20320;-65
2024/03/21 02:31:24;;;;;;;3.20;1.67;;;8.10;99.90;;;;;;2053063;28;20773;-65
2024/03/21 02:32:25;;;;;;;3.63;1.83;;;8.20;99.90;;;;;;2054065;28;20326;-65
2024/03/21 02:33:25;;;;;;;2.22;1.90;;;8.10;99.90;;;;;;2053371;28;20572;-65
2024/03/21 02:34:26;;;;;;;3.03;1.67;;;8.10;99.90;;;;;;2054063;28;20245;-66
2024/03/21 02:35:27;;;;;;;1.90;1.60;;;8.10;99.90;;;;;;2053926;28;20248;-66
2024/03/21 02:36:29;;;;;;;2.93;1.93;;;7.90;99.90;;;;;;2061869;28;20238;-63
2024/03/21 02:37:31;;;;;;;2.80;1.80;;;7.90;99.90;;;;;;2052592;28;20612;-66
2024/03/21 02:38:31;;;;;;;3.08;1.90;;;8.00;99.90;;;;;;2048808;28;20233;-64
2024/03/21 02:39:32;;;;;;;2.53;2.07;;;8.00;99.90;;;;;;2044217;28;20310;-64
2024/03/21 02:40:33;;;;;;;2.23;1.73;;;8.20;99.90;;;;;;2044495;28;20253;-64
2024/03/21 02:41:34;;;;;;;3.60;2.13;;;8.10;99.90;;;;;;2061749;28;20240;-64
2024/03/21 02:42:34;;;;;;;2.70;2.20;;;8.20;99.90;;;;;;2054366;28;20245;-64
2024/03/21 02:43:35;;;;;;;2.17;1.83;;;8.30;99.90;;;;;;2053630;28;20724;-64
2024/03/21 02:44:36;;;;;;;2.73;2.10;;;8.40;99.90;;;;;;2063173;28;20658;-65
2024/03/21 02:45:36;;;;;;;3.93;1.83;;;8.50;99.90;;;;;;2052674;28;20302;-65
2024/03/21 02:46:38;;;;;;;2.87;1.70;;;8.60;99.90;;;;;;2053975;28;20333;-64
2024/03/21 02:47:39;;;;;;;2.20;2.00;;;8.60;99.90;;;;;;2061500;28;20229;-65
2024/03/21 02:48:40;;;;;;;3.00;1.90;;;8.70;99.90;;;;;;2061365;28;20225;-65
2024/03/21 02:49:40;;;;;;;3.87;1.90;;;8.70;99.90;;;;;;2061041;28;20229;-65
2024/03/21 02:50:41;;;;;;;2.30;2.00;;;8.60;99.90;;;;;;2062291;28;20715;-65
2024/03/21 02:51:42;;;;;;;2.97;2.23;;;8.70;99.90;;;;;;2061382;28;20295;-65
2024/03/21 02:52:42;;;;;;;2.53;2.10;;;8.70;99.90;;;;;;2060152;28;20234;-65
2024/03/21 02:53:43;;;;;;;3.43;2.10;;;8.80;99.90;;;;;;2057365;28;20299;-66
2024/03/21 02:54:44;;;;;;;4.23;2.57;;;8.80;99.90;;;;;;2059480;28;20230;-66
2024/03/21 02:55:45;;;;;;;2.57;2.10;;;8.90;99.90;;;;;;2060919;28;20625;-66
2024/03/21 02:56:46;;;;;;;2.17;1.98;;;8.90;99.90;;;;;;2053345;28;20246;-66
2024/03/21 02:57:47;;;;;;;5.65;2.00;;;8.80;99.90;;;;;;2052683;28;20222;-64
2024/03/21 02:58:47;;;;;;;1.90;1.77;;;8.90;99.90;;;;;;2061532;28;20226;-65
2024/03/21 02:59:48;;;;;;;2.47;2.13;;;8.90;99.90;;;;;;2061860;28;21008;-64
2024/03/21 03:00:48;;;;;;;2.53;2.17;;;8.90;99.90;;;;;;2061022;28;20257;-64
2024/03/21 03:01:49;;;;;;;2.50;2.30;;;9.00;99.90;;;;;;2063353;28;20317;-65
2024/03/21 03:02:50;;;;;;;2.30;1.97;;;9.00;99.90;;;;;;2061219;28;20234;-65
2024/03/21 03:03:51;;;;;;;2.23;1.83;;;9.00;99.90;;;;;;2062474;28;20305;-65
2024/03/21 03:04:51;;;;;;;2.60;1.80;;;9.10;99.90;;;;;;2061304;28;20229;-65
2024/03/21 03:05:52;;;;;;;3.23;2.10;;;9.10;99.90;;;;;;2061749;28;20255;-65
2024/03/21 03:06:53;;;;;;;4.07;2.03;;;9.10;99.90;;;;;;2064288;28;20281;-65
2024/03/21 03:07:53;;;;;;;3.50;2.40;;;9.10;99.90;;;;;;2061460;28;20747;-65
2024/03/21 03:08:54;;;;;;;2.30;2.00;;;9.10;99.90;;;;;;2061071;28;20230;-66
2024/03/21 03:09:55;;;;;;;1.90;1.63;;;9.10;99.90;;;;;;2052961;28;20233;-65
2024/03/21 03:10:57;;;;;;;1.97;1.60;;;9.10;99.90;;;;;;2053430;28;20233;-66
2024/03/21 03:11:58;;;;;;;2.38;1.60;;;9.30;99.90;;;;;;2060036;28;20755;-65
2024/03/21 03:12:58;;;;;;;2.70;1.70;;;9.30;99.90;;;;;;2061887;28;20237;-65
2024/03/21 03:13:59;;;;;;;5.30;1.60;;;9.40;99.90;;;;;;2061823;28;20256;-65
2024/03/21 03:15:02;;;;;;;1.50;1.30;;;9.50;99.90;;;;;;2061194;28;20229;-65
2024/03/21 03:16:02;;;;;;;1.92;1.67;;;9.50;99.90;;;;;;2060289;28;20242;-64
2024/03/21 03:17:03;;;;;;;1.83;1.53;;;9.60;99.90;;;;;;2052032;28;20218;-64
2024/03/21 03:18:04;;;;;;;2.40;1.50;;;9.60;99.90;;;;;;2051415;28;20195;-65
2024/03/21 03:19:07;;;;;;;2.20;1.50;;;9.60;99.90;;;;;;2060302;28;20183;-66
2024/03/21 03:20:08;;;;;;;2.60;2.03;;;9.70;99.90;;;;;;2061254;28;20179;-65
2024/03/21 03:21:08;;;;;;;2.33;1.80;;;9.70;99.90;;;;;;2061489;28;20240;-65
2024/03/21 03:22:09;;;;;;;2.37;1.43;;;9.70;99.90;;;;;;2062514;28;20189;-65
2024/03/21 03:23:10;;;;;;;2.30;1.97;;;9.70;99.90;;;;;;2061619;28;20729;-65
2024/03/21 03:24:10;;;;;;;2.40;1.97;;;9.70;99.90;;;;;;2059229;28;20178;-65
2024/03/21 03:25:11;;;;;;;2.07;1.70;;;9.70;99.90;;;;;;2061250;28;20198;-65
2024/03/21 03:26:12;;;;;;;2.47;1.77;;;9.70;99.90;;;;;;2046085;28;20206;-67
2024/03/21 03:27:12;;;;;;;1.97;1.70;;;9.60;99.90;;;;;;2053286;28;20179;-66
2024/03/21 03:28:13;;;;;;;3.07;1.83;;;9.60;99.90;;;;;;2053414;28;20194;-64
2024/03/21 03:29:14;;;;;;;2.50;1.87;;;9.50;99.90;;;;;;2052461;28;20186;-65
2024/03/21 03:30:15;;;;;;;4.40;1.60;;;9.60;99.90;;;;;;2061453;28;20182;-64
2024/03/21 03:31:16;;;;;;;3.08;1.75;;;9.50;99.90;;;;;;2052962;28;20194;-65
2024/03/21 03:32:17;;;;;;;3.05;1.63;;;9.50;99.90;;;;;;2045504;28;20266;-66
2024/03/21 03:36:15;;;;;;;1.67;1.50;;;9.30;99.90;;;;;;2036147;29;20641;-65
2024/03/21 03:37:16;;;;;;;4.60;1.77;;;9.30;99.90;;;;;;2037139;29;20216;-65
2024/03/21 03:38:18;;;;;;;3.17;1.93;;;9.30;99.90;;;;;;2030191;29;20710;-65
2024/03/21 03:39:19;;;;;;;1.67;1.27;;;9.20;99.90;;;;;;2028415;29;20205;-65
2024/03/21 03:40:19;;;;;;;2.33;1.50;;;9.00;99.90;;;;;;2041329;28;20193;-65
2024/03/21 03:41:20;;;;;;;2.90;1.50;;;9.00;99.90;;;;;;2061410;28;20224;-64
2024/03/21 03:42:21;;;;;;;2.03;1.40;;;9.10;99.90;;;;;;2061461;28;20589;-64
2024/03/21 03:43:21;;;;;;;3.60;1.93;;;9.00;99.90;;;;;;2060464;28;20230;-65
2024/03/21 03:44:22;;;;;;;3.10;1.60;;;8.90;99.90;;;;;;2061412;28;20218;-64
2024/03/21 03:45:23;;;;;;;4.40;1.70;;;8.90;99.90;;;;;;2058120;28;20237;-65
2024/03/21 03:46:24;;;;;;;2.50;1.87;;;8.90;99.90;;;;;;2062347;28;20225;-65
2024/03/21 03:47:25;;;;;;;2.67;1.92;;;8.90;99.90;;;;;;2054026;28;20317;-65
2024/03/21 03:48:25;;;;;;;4.10;1.83;;;8.80;99.90;;;;;;2054483;28;20230;-65
2024/03/21 03:49:26;;;;;;;1.83;1.63;;;8.80;99.90;;;;;;2060958;28;20236;-66
2024/03/21 03:50:27;;;;;;;5.63;2.07;;;8.70;99.90;;;;;;2061858;28;20308;-66
2024/03/21 03:51:28;;;;;;;2.03;1.80;;;8.70;99.90;;;;;;2061310;28;20316;-65
2024/03/21 03:52:28;;;;;;;2.70;2.07;;;8.70;99.90;;;;;;2053912;28;20301;-65
2024/03/21 03:53:29;;;;;;;2.03;1.80;;;8.70;99.90;;;;;;2052896;28;20282;-65
2024/03/21 03:54:30;;;;;;;2.23;1.63;;;8.70;99.90;;;;;;2061906;28;20230;-65
2024/03/21 03:55:30;;;;;;;2.57;1.80;;;8.70;99.90;;;;;;2052416;28;20227;-66
2024/03/21 03:56:31;;;;;;;2.77;1.80;;;8.70;99.90;;;;;;2052516;28;20346;-65
2024/03/21 03:57:32;;;;;;;1.93;1.70;;;8.70;99.90;;;;;;2062078;28;20246;-65
2024/03/21 03:58:32;;;;;;;3.47;2.77;;;8.80;99.90;;;;;;2061816;28;20305;-66
2024/03/21 03:59:33;;;;;;;4.77;2.60;;;8.80;99.90;;;;;;2060803;28;20234;-65
2024/03/21 04:00:34;;;;;;;3.73;2.53;;;8.80;99.90;;;;;;2061460;28;20595;-65
2024/03/21 04:01:34;;;;;;;2.30;2.10;;;8.90;99.90;;;;;;2061361;28;20614;-66
2024/03/21 04:02:37;;;;;;;3.13;1.90;;;8.80;99.90;;;;;;2061140;28;20236;-65
2024/03/21 04:03:38;;;;;;;2.47;2.28;;;8.80;99.90;;;;;;2059366;28;20767;-66
2024/03/21 04:04:39;;;;;;;4.30;2.90;;;8.80;99.90;;;;;;2057136;28;20233;-65
2024/03/21 04:05:39;;;;;;;3.57;2.83;;;8.80;99.90;;;;;;2058891;28;20276;-66
2024/03/21 04:06:40;;;;;;;3.00;2.70;;;8.90;99.90;;;;;;2061321;28;20705;-66
2024/03/21 04:07:42;;;;;;;5.10;2.80;;;8.90;99.90;;;;;;2062460;28;20253;-65
2024/03/21 04:08:44;;;;;;;3.60;2.60;;;9.00;99.90;;;;;;2058725;28;20311;-65
2024/03/21 04:09:45;;;;;;;2.20;1.60;;;9.00;99.90;;;;;;2061361;28;20230;-65
2024/03/21 04:10:46;;;;;;;2.80;2.07;;;9.00;99.90;;;;;;2060265;28;20357;-65
2024/03/21 04:11:46;;;;;;;2.30;1.57;;;9.10;99.90;;;;;;2058204;28;20226;-65
2024/03/21 04:12:47;;;;;;;3.10;1.77;;;9.30;99.90;;;;;;2056434;28;20758;-66
2024/03/21 04:13:48;;;;;;;3.70;2.33;;;9.30;99.90;;;;;;2060097;28;20313;-66
2024/03/21 04:14:51;;;;;;;2.80;2.10;;;9.30;99.90;;;;;;2061166;28;20312;-66
2024/03/21 04:15:56;;;;;;;2.40;1.85;;;9.30;99.90;;;;;;2054913;28;20234;-66
2024/03/21 04:16:57;;;;;;;2.42;1.70;;;9.40;99.90;;;;;;2048989;28;20267;-66
2024/03/21 04:17:58;;;;;;;2.03;1.83;;;9.50;99.90;;;;;;2053096;28;20346;-66
2024/03/21 04:18:58;;;;;;;3.03;2.10;;;9.40;99.90;;;;;;2047970;28;20246;-66
2024/03/21 04:20:02;;;;;;;4.67;2.40;;;9.50;99.90;;;;;;2040727;28;20284;-66
2024/03/21 04:21:03;;;;;;;2.03;1.73;;;9.50;99.90;;;;;;2048792;28;20793;-66
2024/03/21 04:22:04;;;;;;;2.40;2.05;;;9.60;99.90;;;;;;2048627;28;20242;-66
2024/03/21 04:23:05;;;;;;;1.90;1.70;;;9.60;99.90;;;;;;2054430;28;20261;-66
2024/03/21 04:24:06;;;;;;;11.23;7.73;;;9.60;99.90;;;;;;2061748;28;20182;-65
2024/03/21 04:25:07;;;;;;;33.27;27.10;;;9.60;99.90;;;;;;2061207;28;20181;-66
2024/03/21 04:26:08;;;;;;;25.15;21.02;;;9.60;99.90;;;;;;2052144;28;20191;-66
2024/03/21 04:27:09;;;;;;;14.97;12.33;;;9.70;99.90;;;;;;2045520;28;20549;-66
2024/03/21 04:28:10;;;;;;;7.30;5.57;;;9.70;99.90;;;;;;2043505;28;20188;-66
2024/03/21 04:29:10;;;;;;;2.67;2.33;;;9.80;99.90;;;;;;2048066;28;20186;-66
2024/03/21 04:30:12;;;;;;;4.03;3.03;;;9.90;99.90;;;;;;2049847;28;20661;-66
2024/03/21 04:31:12;;;;;;;4.97;4.03;;;10.00;99.90;;;;;;2048303;28;20191;-66
2024/03/21 04:32:15;;;;;;;4.93;4.10;;;10.10;99.90;;;;;;2052977;28;20281;-66
2024/03/21 04:33:16;;;;;;;5.75;3.65;;;10.20;99.90;;;;;;2046380;28;20199;-65
2024/03/21 04:34:17;;;;;;;4.63;3.13;;;10.20;99.90;;;;;;2053073;28;20294;-65
2024/03/21 04:35:17;;;;;;;2.37;1.80;;;10.30;99.90;;;;;;2056978;28;20221;-66
2024/03/21 04:36:18;;;;;;;1.77;1.40;;;10.30;99.90;;;;;;2041293;28;20286;-65
2024/03/21 04:37:19;;;;;;;2.13;1.70;;;10.40;99.90;;;;;;2042754;28;20226;-65
2024/03/21 04:38:20;;;;;;;5.80;1.60;;;10.30;99.90;;;;;;2060024;28;20182;-65
2024/03/21 04:39:21;;;;;;;2.13;1.60;;;10.40;99.80;;;;;;2059672;28;20343;-65
2024/03/21 04:40:22;;;;;;;1.70;1.30;;;10.50;99.40;;;;;;2062741;28;20658;-65
2024/03/21 04:41:22;;;;;;;2.87;1.60;;;10.50;99.90;;;;;;2051212;28;20227;-66
2024/03/21 04:42:23;;;;;;;4.23;1.90;;;10.50;99.60;;;;;;2043893;28;20262;-65
2024/03/21 04:43:24;;;;;;;4.00;2.07;;;10.50;99.90;;;;;;2051807;28;20312;-65
2024/03/21 04:44:24;;;;;;;3.03;2.10;;;10.50;99.90;;;;;;2059860;28;20714;-65
2024/03/21 04:45:25;;;;;;;2.57;1.73;;;10.60;99.90;;;;;;2057177;28;20253;-65
2024/03/21 04:46:26;;;;;;;2.20;1.67;;;10.50;99.90;;;;;;2060808;28;20233;-65
2024/03/21 04:47:26;;;;;;;2.40;1.87;;;10.50;99.10;;;;;;2060288;28;20697;-65
2024/03/21 04:48:27;;;;;;;1.77;1.63;;;10.50;99.30;;;;;;2051542;28;20234;-66
2024/03/21 04:49:27;;;;;;;1.73;1.40;;;10.60;98.70;;;;;;2050799;28;20230;-65
2024/03/21 04:50:28;;;;;;;3.30;1.80;;;10.50;99.40;;;;;;2062569;28;20234;-64
2024/03/21 04:51:29;;;;;;;1.97;1.77;;;10.50;99.40;;;;;;2060838;28;20745;-64
2024/03/21 04:52:30;;;;;;;2.30;1.60;;;10.50;99.80;;;;;;2060899;28;20233;-63
2024/03/21 04:53:30;;;;;;;1.50;1.40;;;10.60;99.10;;;;;;2061073;28;20226;-67
2024/03/21 04:54:31;;;;;;;1.87;1.67;;;10.50;99.10;;;;;;2061169;28;20251;-63
2024/03/21 04:55:32;;;;;;;2.33;1.50;;;10.50;99.00;;;;;;2060725;28;20303;-64
2024/03/21 04:56:32;;;;;;;1.80;1.67;;;10.60;99.40;;;;;;2059245;28;20226;-64
2024/03/21 04:57:33;;;;;;;2.80;1.90;;;10.60;99.20;;;;;;2060272;28;20230;-64
2024/03/21 04:58:34;;;;;;;2.00;1.50;;;10.60;99.00;;;;;;2057940;28;20250;-64
2024/03/21 04:59:34;;;;;;;2.37;1.70;;;10.60;99.30;;;;;;2051411;28;20215;-64
2024/03/21 05:00:35;;;;;;;2.60;2.13;;;10.70;99.60;;;;;;2052028;28;20223;-63
2024/03/21 05:01:37;;;;;;;3.00;2.23;;;10.70;98.70;;;;;;2060545;28;20232;-64
2024/03/21 05:02:38;;;;;;;5.15;2.00;;;10.70;98.90;;;;;;2052346;28;20233;-64
2024/03/21 05:03:38;;;;;;;2.40;2.03;;;10.70;99.30;;;;;;2052390;28;20238;-65
2024/03/21 05:04:39;;;;;;;2.30;1.90;;;10.70;98.90;;;;;;2051833;28;20669;-63
2024/03/21 05:05:40;;;;;;;3.47;1.70;;;10.70;99.20;;;;;;2051830;28;20322;-64
2024/03/21 05:06:40;;;;;;;3.40;1.97;;;10.80;99.00;;;;;;2060983;28;20229;-64
2024/03/21 05:07:41;;;;;;;3.90;1.77;;;10.80;99.30;;;;;;2060345;28;20222;-63
2024/03/21 05:08:42;;;;;;;6.70;2.20;;;10.80;99.60;;;;;;2060426;28;20222;-64
2024/03/21 05:09:42;;;;;;;3.33;2.30;;;10.90;99.30;;;;;;2061118;28;20234;-64
2024/03/21 05:10:43;;;;;;;3.57;2.00;;;10.90;99.10;;;;;;2060740;28;20230;-63
2024/03/21 05:11:44;;;;;;;3.23;2.00;;;10.90;99.60;;;;;;2060029;28;20222;-64
2024/03/21 05:12:44;;;;;;;2.40;1.77;;;10.90;99.30;;;;;;2061520;28;20226;-64
2024/03/21 05:13:49;;;;;;;2.40;1.90;;;10.90;99.40;;;;;;2061129;28;20218;-63
2024/03/21 05:14:50;;;;;;;4.20;2.35;;;10.90;99.90;;;;;;2061389;28;20241;-65
2024/03/21 05:15:52;;;;;;;4.43;2.10;;;10.90;99.90;;;;;;2051641;28;20620;-65
2024/03/21 05:16:52;;;;;;;3.17;1.90;;;10.90;99.90;;;;;;2055080;28;20250;-65
2024/03/21 05:17:53;;;;;;;3.50;2.07;;;10.90;99.90;;;;;;2060782;28;20221;-64
2024/03/21 05:18:55;;;;;;;2.87;2.23;;;10.90;99.90;;;;;;2057651;28;20218;-65
2024/03/21 05:19:55;;;;;;;3.20;2.00;;;10.90;99.90;;;;;;2061058;28;20779;-64
2024/03/21 05:20:56;;;;;;;3.90;2.67;;;10.90;99.90;;;;;;2053643;28;20281;-65
2024/03/21 05:21:57;;;;;;;3.67;2.10;;;11.00;99.90;;;;;;2054323;28;20215;-64
2024/03/21 05:22:57;;;;;;;2.93;1.83;;;10.90;99.90;;;;;;2062383;28;20673;-63
2024/03/21 05:23:58;;;;;;;3.20;2.30;;;10.90;99.90;;;;;;2062543;28;20218;-63
2024/03/21 05:24:59;;;;;;;2.33;2.03;;;10.90;99.90;;;;;;2062818;28;20222;-63
2024/03/21 05:25:59;;;;;;;3.17;2.23;;;11.00;99.90;;;;;;2063212;28;20214;-63